sensor_id;sensor_type;location;lat;lon;timestamp;temperature;humidity
52867;DHT22;38739;53.324;6.862;2023-08-31T00:00:43;11.20;99.90
52867;DHT22;38739;53.324;6.862;2023-08-31T00:03:10;11.10;99.90
52867;DHT22;38739;53.324;6.862;2023-08-31T00:05:41;11.10;99.90
52867;DHT22;38739;53.324;6.862;2023-08-31T00:08:07;11.10;99.90
52867;DHT22;38739;53.324;6.862;2023-08-31T00:10:36;11.10;99.90
52867;DHT22;38739;53.324;6.862;2023-08-31T00:13:02;11.10;99.90
52867;DHT22;38739;53.324;6.862;2023-08-31T00:15:29;11.00;99.90
52867;DHT22;38739;53.324;6.862;2023-08-31T00:17:58;11.00;99.90
52867;DHT22;38739;53.324;6.862;2023-08-31T00:20:24;11.00;99.90
52867;DHT22;38739;53.324;6.862;2023-08-31T00:22:49;10.90;99.90
52867;DHT22;38739;53.324;6.862;2023-08-31T00:25:15;10.90;99.90
52867;DHT22;38739;53.324;6.862;2023-08-31T00:27:41;10.90;99.90
52867;DHT22;38739;53.324;6.862;2023-08-31T00:30:09;10.90;99.90
52867;DHT22;38739;53.324;6.862;2023-08-31T00:32:35;10.90;99.90
52867;DHT22;38739;53.324;6.862;2023-08-31T00:35:00;10.90;99.90
52867;DHT22;38739;53.324;6.862;2023-08-31T00:37:26;10.90;99.90
52867;DHT22;38739;53.324;6.862;2023-08-31T00:39:52;10.90;99.90
52867;DHT22;38739;53.324;6.862;2023-08-31T00:42:20;10.90;99.90
52867;DHT22;38739;53.324;6.862;2023-08-31T00:44:47;10.90;99.90
52867;DHT22;38739;53.324;6.862;2023-08-31T00:47:14;10.80;99.90
52867;DHT22;38739;53.324;6.862;2023-08-31T00:49:41;10.80;99.90
52867;DHT22;38739;53.324;6.862;2023-08-31T00:52:07;10.80;99.90
52867;DHT22;38739;53.324;6.862;2023-08-31T00:54:36;10.80;99.90
52867;DHT22;38739;53.324;6.862;2023-08-31T00:57:02;10.80;99.90
52867;DHT22;38739;53.324;6.862;2023-08-31T00:59:29;10.80;99.90
52867;DHT22;38739;53.324;6.862;2023-08-31T01:02:07;10.80;99.90
52867;DHT22;38739;53.324;6.862;2023-08-31T01:07:21;10.90;99.90
52867;DHT22;38739;53.324;6.862;2023-08-31T01:10:08;10.80;99.90
52867;DHT22;38739;53.324;6.862;2023-08-31T01:12:47;10.80;99.90
52867;DHT22;38739;53.324;6.862;2023-08-31T01:15:17;10.80;99.90
52867;DHT22;38739;53.324;6.862;2023-08-31T01:17:48;10.70;99.90
52867;DHT22;38739;53.324;6.862;2023-08-31T01:20:19;10.80;99.90
52867;DHT22;38739;53.324;6.862;2023-08-31T01:22:57;10.70;99.90
52867;DHT22;38739;53.324;6.862;2023-08-31T01:25:26;10.70;99.90
52867;DHT22;38739;53.324;6.862;2023-08-31T01:27:52;10.80;99.90
52867;DHT22;38739;53.324;6.862;2023-08-31T01:30:18;10.80;99.90
52867;DHT22;38739;53.324;6.862;2023-08-31T01:32:44;10.70;99.90
52867;DHT22;38739;53.324;6.862;2023-08-31T01:35:11;10.80;99.90
52867;DHT22;38739;53.324;6.862;2023-08-31T01:37:47;10.80;99.90
52867;DHT22;38739;53.324;6.862;2023-08-31T01:40:23;10.80;99.90
52867;DHT22;38739;53.324;6.862;2023-08-31T01:42:50;10.70;99.90
52867;DHT22;38739;53.324;6.862;2023-08-31T01:45:21;10.80;99.90
52867;DHT22;38739;53.324;6.862;2023-08-31T01:47:48;10.70;99.90
52867;DHT22;38739;53.324;6.862;2023-08-31T01:50:14;10.70;99.90
52867;DHT22;38739;53.324;6.862;2023-08-31T01:52:40;10.70;99.90
52867;DHT22;38739;53.324;6.862;2023-08-31T01:55:06;10.70;99.90
52867;DHT22;38739;53.324;6.862;2023-08-31T01:57:33;10.70;99.90
52867;DHT22;38739;53.324;6.862;2023-08-31T01:59:59;10.70;99.90
52867;DHT22;38739;53.324;6.862;2023-08-31T02:02:25;10.70;99.90
52867;DHT22;38739;53.324;6.862;2023-08-31T02:04:50;10.70;99.90
52867;DHT22;38739;53.324;6.862;2023-08-31T02:07:17;10.60;99.90
52867;DHT22;38739;53.324;6.862;2023-08-31T02:09:43;10.60;99.90
52867;DHT22;38739;53.324;6.862;2023-08-31T02:12:09;10.60;99.90
52867;DHT22;38739;53.324;6.862;2023-08-31T02:14:37;10.60;99.90
52867;DHT22;38739;53.324;6.862;2023-08-31T02:17:04;10.60;99.90
52867;DHT22;38739;53.324;6.862;2023-08-31T02:19:30;10.60;99.90
52867;DHT22;38739;53.324;6.862;2023-08-31T02:21:55;10.50;99.90
52867;DHT22;38739;53.324;6.862;2023-08-31T02:24:21;10.60;99.90
52867;DHT22;38739;53.324;6.862;2023-08-31T02:26:48;10.50;99.90
52867;DHT22;38739;53.324;6.862;2023-08-31T02:29:14;10.50;99.90
52867;DHT22;38739;53.324;6.862;2023-08-31T02:31:39;10.50;99.90
52867;DHT22;38739;53.324;6.862;2023-08-31T02:34:07;10.50;99.90
52867;DHT22;38739;53.324;6.862;2023-08-31T02:36:32;10.50;99.90
52867;DHT22;38739;53.324;6.862;2023-08-31T02:38:58;10.50;99.90
52867;DHT22;38739;53.324;6.862;2023-08-31T02:41:24;10.50;99.90
52867;DHT22;38739;53.324;6.862;2023-08-31T02:43:50;10.60;99.90
52867;DHT22;38739;53.324;6.862;2023-08-31T02:46:17;10.60;99.90
52867;DHT22;38739;53.324;6.862;2023-08-31T02:48:44;10.60;99.90
52867;DHT22;38739;53.324;6.862;2023-08-31T02:51:09;10.60;99.90
52867;DHT22;38739;53.324;6.862;2023-08-31T02:53:35;10.60;99.90
52867;DHT22;38739;53.324;6.862;2023-08-31T02:56:02;10.60;99.90
52867;DHT22;38739;53.324;6.862;2023-08-31T02:58:28;10.60;99.90
52867;DHT22;38739;53.324;6.862;2023-08-31T03:00:53;10.60;99.90
52867;DHT22;38739;53.324;6.862;2023-08-31T03:03:19;10.60;99.90
52867;DHT22;38739;53.324;6.862;2023-08-31T03:05:45;10.60;99.90
52867;DHT22;38739;53.324;6.862;2023-08-31T03:08:17;10.60;99.90
52867;DHT22;38739;53.324;6.862;2023-08-31T03:10:43;10.60;99.90
52867;DHT22;38739;53.324;6.862;2023-08-31T03:13:09;10.60;99.90
52867;DHT22;38739;53.324;6.862;2023-08-31T03:15:35;10.60;99.90
52867;DHT22;38739;53.324;6.862;2023-08-31T03:18:01;10.60;99.90
52867;DHT22;38739;53.324;6.862;2023-08-31T03:20:27;10.60;99.90
52867;DHT22;38739;53.324;6.862;2023-08-31T03:22:52;10.60;99.90
52867;DHT22;38739;53.324;6.862;2023-08-31T03:25:18;10.60;99.90
52867;DHT22;38739;53.324;6.862;2023-08-31T03:27:44;10.60;99.90
52867;DHT22;38739;53.324;6.862;2023-08-31T03:30:10;10.60;99.90
52867;DHT22;38739;53.324;6.862;2023-08-31T03:32:35;10.60;99.90
52867;DHT22;38739;53.324;6.862;2023-08-31T03:35:05;10.60;99.90
52867;DHT22;38739;53.324;6.862;2023-08-31T03:37:30;10.60;99.90
52867;DHT22;38739;53.324;6.862;2023-08-31T03:39:56;10.60;99.90
52867;DHT22;38739;53.324;6.862;2023-08-31T03:42:22;10.60;99.90
52867;DHT22;38739;53.324;6.862;2023-08-31T03:44:47;10.50;99.90
52867;DHT22;38739;53.324;6.862;2023-08-31T03:47:13;10.50;99.90
52867;DHT22;38739;53.324;6.862;2023-08-31T03:49:38;10.50;99.90
52867;DHT22;38739;53.324;6.862;2023-08-31T03:52:04;10.50;99.90
52867;DHT22;38739;53.324;6.862;2023-08-31T03:54:30;10.50;99.90
52867;DHT22;38739;53.324;6.862;2023-08-31T03:56:56;10.50;99.90
52867;DHT22;38739;53.324;6.862;2023-08-31T03:59:21;10.50;99.90
52867;DHT22;38739;53.324;6.862;2023-08-31T04:01:47;10.50;99.90
52867;DHT22;38739;53.324;6.862;2023-08-31T04:04:13;10.50;99.90
52867;DHT22;38739;53.324;6.862;2023-08-31T04:06:38;10.50;99.90
52867;DHT22;38739;53.324;6.862;2023-08-31T04:09:04;10.50;99.90
52867;DHT22;38739;53.324;6.862;2023-08-31T04:11:30;10.40;99.90
52867;DHT22;38739;53.324;6.862;2023-08-31T04:13:55;10.40;99.90
52867;DHT22;38739;53.324;6.862;2023-08-31T04:16:21;10.40;99.90
52867;DHT22;38739;53.324;6.862;2023-08-31T04:18:47;10.40;99.90
52867;DHT22;38739;53.324;6.862;2023-08-31T04:21:17;10.40;99.90
52867;DHT22;38739;53.324;6.862;2023-08-31T04:23:44;10.40;99.90
52867;DHT22;38739;53.324;6.862;2023-08-31T04:26:11;10.40;99.90
52867;DHT22;38739;53.324;6.862;2023-08-31T04:28:40;10.40;99.90
52867;DHT22;38739;53.324;6.862;2023-08-31T04:31:08;10.40;99.90
52867;DHT22;38739;53.324;6.862;2023-08-31T04:33:34;10.50;99.90
52867;DHT22;38739;53.324;6.862;2023-08-31T04:36:00;10.50;99.90
52867;DHT22;38739;53.324;6.862;2023-08-31T04:38:26;10.50;99.90
52867;DHT22;38739;53.324;6.862;2023-08-31T04:40:51;10.50;99.90
52867;DHT22;38739;53.324;6.862;2023-08-31T04:43:17;10.50;99.90
52867;DHT22;38739;53.324;6.862;2023-08-31T04:45:43;10.50;99.90
52867;DHT22;38739;53.324;6.862;2023-08-31T04:48:08;10.50;99.90
52867;DHT22;38739;53.324;6.862;2023-08-31T04:50:34;10.50;99.90
52867;DHT22;38739;53.324;6.862;2023-08-31T04:53:00;10.50;99.90
52867;DHT22;38739;53.324;6.862;2023-08-31T04:55:25;10.50;99.90
52867;DHT22;38739;53.324;6.862;2023-08-31T04:57:51;10.50;99.90
52867;DHT22;38739;53.324;6.862;2023-08-31T05:00:17;10.50;99.90
52867;DHT22;38739;53.324;6.862;2023-08-31T05:02:43;10.50;99.90
52867;DHT22;38739;53.324;6.862;2023-08-31T05:05:09;10.50;99.90
52867;DHT22;38739;53.324;6.862;2023-08-31T05:07:35;10.50;99.90
52867;DHT22;38739;53.324;6.862;2023-08-31T05:10:00;10.50;99.90
52867;DHT22;38739;53.324;6.862;2023-08-31T05:12:26;10.50;99.90
52867;DHT22;38739;53.324;6.862;2023-08-31T05:14:52;10.50;99.90
52867;DHT22;38739;53.324;6.862;2023-08-31T05:17:17;10.50;99.90
52867;DHT22;38739;53.324;6.862;2023-08-31T05:19:43;10.50;99.90
52867;DHT22;38739;53.324;6.862;2023-08-31T05:22:09;10.40;99.90
52867;DHT22;38739;53.324;6.862;2023-08-31T05:24:34;10.50;99.90
52867;DHT22;38739;53.324;6.862;2023-08-31T05:27:00;10.50;99.90
52867;DHT22;38739;53.324;6.862;2023-08-31T05:29:26;10.40;99.90
52867;DHT22;38739;53.324;6.862;2023-08-31T05:31:52;10.40;99.90
52867;DHT22;38739;53.324;6.862;2023-08-31T05:34:21;10.50;99.90
52867;DHT22;38739;53.324;6.862;2023-08-31T05:36:47;10.50;99.90
52867;DHT22;38739;53.324;6.862;2023-08-31T05:39:13;10.50;99.90
52867;DHT22;38739;53.324;6.862;2023-08-31T05:41:41;10.50;99.90
52867;DHT22;38739;53.324;6.862;2023-08-31T05:44:07;10.60;99.90
52867;DHT22;38739;53.324;6.862;2023-08-31T05:46:33;10.60;99.90
52867;DHT22;38739;53.324;6.862;2023-08-31T05:48:59;10.60;99.90
52867;DHT22;38739;53.324;6.862;2023-08-31T05:51:24;10.60;99.90
52867;DHT22;38739;53.324;6.862;2023-08-31T05:53:50;10.70;99.90
52867;DHT22;38739;53.324;6.862;2023-08-31T05:56:16;10.70;99.90
52867;DHT22;38739;53.324;6.862;2023-08-31T05:58:41;10.70;99.90
52867;DHT22;38739;53.324;6.862;2023-08-31T06:01:07;10.70;99.90
52867;DHT22;38739;53.324;6.862;2023-08-31T06:03:33;10.80;99.90
52867;DHT22;38739;53.324;6.862;2023-08-31T06:05:59;10.80;99.90
52867;DHT22;38739;53.324;6.862;2023-08-31T06:08:25;10.90;99.90
52867;DHT22;38739;53.324;6.862;2023-08-31T06:10:51;10.90;99.90
52867;DHT22;38739;53.324;6.862;2023-08-31T06:13:17;10.90;99.90
52867;DHT22;38739;53.324;6.862;2023-08-31T06:15:43;11.00;99.90
52867;DHT22;38739;53.324;6.862;2023-08-31T06:18:10;11.00;99.90
52867;DHT22;38739;53.324;6.862;2023-08-31T06:20:36;11.10;99.90
52867;DHT22;38739;53.324;6.862;2023-08-31T06:23:02;11.20;99.90
52867;DHT22;38739;53.324;6.862;2023-08-31T06:25:28;11.20;99.90
52867;DHT22;38739;53.324;6.862;2023-08-31T06:27:54;11.30;99.90
52867;DHT22;38739;53.324;6.862;2023-08-31T06:30:20;11.40;99.90
52867;DHT22;38739;53.324;6.862;2023-08-31T06:32:47;11.50;99.90
52867;DHT22;38739;53.324;6.862;2023-08-31T06:35:13;11.60;99.90
52867;DHT22;38739;53.324;6.862;2023-08-31T06:37:40;11.70;99.90
52867;DHT22;38739;53.324;6.862;2023-08-31T06:40:07;11.80;99.90
52867;DHT22;38739;53.324;6.862;2023-08-31T06:42:34;11.90;99.90
52867;DHT22;38739;53.324;6.862;2023-08-31T06:45:01;12.10;99.90
52867;DHT22;38739;53.324;6.862;2023-08-31T06:47:26;12.20;99.90
52867;DHT22;38739;53.324;6.862;2023-08-31T06:49:52;12.30;99.90
52867;DHT22;38739;53.324;6.862;2023-08-31T06:52:18;12.50;99.90
52867;DHT22;38739;53.324;6.862;2023-08-31T06:54:44;12.70;99.90
52867;DHT22;38739;53.324;6.862;2023-08-31T06:57:09;12.80;99.90
52867;DHT22;38739;53.324;6.862;2023-08-31T06:59:35;13.00;99.90
52867;DHT22;38739;53.324;6.862;2023-08-31T07:02:01;13.10;99.90
52867;DHT22;38739;53.324;6.862;2023-08-31T07:04:27;13.20;99.90
52867;DHT22;38739;53.324;6.862;2023-08-31T07:06:53;13.30;99.90
52867;DHT22;38739;53.324;6.862;2023-08-31T07:09:18;13.50;99.90
52867;DHT22;38739;53.324;6.862;2023-08-31T07:11:44;13.60;99.90
52867;DHT22;38739;53.324;6.862;2023-08-31T07:14:10;13.90;99.90
52867;DHT22;38739;53.324;6.862;2023-08-31T07:16:35;14.00;99.90
52867;DHT22;38739;53.324;6.862;2023-08-31T07:19:01;14.10;99.90
52867;DHT22;38739;53.324;6.862;2023-08-31T07:21:28;14.30;99.90
52867;DHT22;38739;53.324;6.862;2023-08-31T07:23:53;14.50;99.90
52867;DHT22;38739;53.324;6.862;2023-08-31T07:26:20;14.60;99.90
52867;DHT22;38739;53.324;6.862;2023-08-31T07:28:46;14.80;99.90
52867;DHT22;38739;53.324;6.862;2023-08-31T07:31:12;14.90;99.90
52867;DHT22;38739;53.324;6.862;2023-08-31T07:33:38;15.10;99.90
52867;DHT22;38739;53.324;6.862;2023-08-31T07:36:05;15.30;99.90
52867;DHT22;38739;53.324;6.862;2023-08-31T07:38:32;15.50;99.90
52867;DHT22;38739;53.324;6.862;2023-08-31T07:40:58;15.60;99.90
52867;DHT22;38739;53.324;6.862;2023-08-31T07:43:25;15.80;99.90
52867;DHT22;38739;53.324;6.862;2023-08-31T07:45:52;15.90;99.90
52867;DHT22;38739;53.324;6.862;2023-08-31T07:48:18;16.10;99.90
52867;DHT22;38739;53.324;6.862;2023-08-31T07:50:45;16.20;99.90
52867;DHT22;38739;53.324;6.862;2023-08-31T07:53:11;16.40;99.90
52867;DHT22;38739;53.324;6.862;2023-08-31T07:55:39;16.50;99.90
52867;DHT22;38739;53.324;6.862;2023-08-31T07:58:07;16.60;99.90
52867;DHT22;38739;53.324;6.862;2023-08-31T08:00:33;16.60;99.90
52867;DHT22;38739;53.324;6.862;2023-08-31T08:02:59;16.70;99.90
52867;DHT22;38739;53.324;6.862;2023-08-31T08:05:25;16.80;99.90
52867;DHT22;38739;53.324;6.862;2023-08-31T08:07:50;17.00;99.90
52867;DHT22;38739;53.324;6.862;2023-08-31T08:10:16;17.10;99.90
52867;DHT22;38739;53.324;6.862;2023-08-31T08:12:42;17.20;99.90
52867;DHT22;38739;53.324;6.862;2023-08-31T08:15:12;17.40;99.90
52867;DHT22;38739;53.324;6.862;2023-08-31T08:17:38;17.50;99.90
52867;DHT22;38739;53.324;6.862;2023-08-31T08:20:06;17.60;99.90
52867;DHT22;38739;53.324;6.862;2023-08-31T08:22:32;17.80;99.90
52867;DHT22;38739;53.324;6.862;2023-08-31T08:24:57;18.00;99.90
52867;DHT22;38739;53.324;6.862;2023-08-31T08:27:23;18.10;99.90
52867;DHT22;38739;53.324;6.862;2023-08-31T08:29:49;18.20;99.90
52867;DHT22;38739;53.324;6.862;2023-08-31T08:32:15;18.40;99.90
52867;DHT22;38739;53.324;6.862;2023-08-31T08:34:40;18.30;99.90
52867;DHT22;38739;53.324;6.862;2023-08-31T08:37:06;18.20;99.90
52867;DHT22;38739;53.324;6.862;2023-08-31T08:39:32;18.10;99.90
52867;DHT22;38739;53.324;6.862;2023-08-31T08:41:58;18.10;99.90
52867;DHT22;38739;53.324;6.862;2023-08-31T08:44:32;18.10;99.90
52867;DHT22;38739;53.324;6.862;2023-08-31T08:46:59;17.90;99.90
52867;DHT22;38739;53.324;6.862;2023-08-31T08:49:32;17.90;99.90
52867;DHT22;38739;53.324;6.862;2023-08-31T08:51:59;18.10;99.90
52867;DHT22;38739;53.324;6.862;2023-08-31T08:54:25;18.50;99.90
52867;DHT22;38739;53.324;6.862;2023-08-31T08:56:51;18.80;99.90
52867;DHT22;38739;53.324;6.862;2023-08-31T08:59:16;19.00;99.90
52867;DHT22;38739;53.324;6.862;2023-08-31T09:01:42;19.00;99.90
52867;DHT22;38739;53.324;6.862;2023-08-31T09:04:09;18.80;99.90
52867;DHT22;38739;53.324;6.862;2023-08-31T09:06:35;18.50;99.90
52867;DHT22;38739;53.324;6.862;2023-08-31T09:09:01;18.20;99.90
52867;DHT22;38739;53.324;6.862;2023-08-31T09:11:27;17.90;99.90
52867;DHT22;38739;53.324;6.862;2023-08-31T09:13:53;17.80;99.90
52867;DHT22;38739;53.324;6.862;2023-08-31T09:16:26;17.60;99.90
52867;DHT22;38739;53.324;6.862;2023-08-31T09:18:52;17.70;99.90
52867;DHT22;38739;53.324;6.862;2023-08-31T09:21:18;18.20;99.90
52867;DHT22;38739;53.324;6.862;2023-08-31T09:23:56;18.60;99.90
52867;DHT22;38739;53.324;6.862;2023-08-31T09:26:22;18.50;99.90
52867;DHT22;38739;53.324;6.862;2023-08-31T09:28:49;18.50;99.90
52867;DHT22;38739;53.324;6.862;2023-08-31T09:31:15;18.60;99.90
52867;DHT22;38739;53.324;6.862;2023-08-31T09:33:52;18.90;99.90
52867;DHT22;38739;53.324;6.862;2023-08-31T09:36:20;19.20;99.90
52867;DHT22;38739;53.324;6.862;2023-08-31T09:38:46;19.50;99.90
52867;DHT22;38739;53.324;6.862;2023-08-31T09:41:12;19.80;99.90
52867;DHT22;38739;53.324;6.862;2023-08-31T09:43:38;20.20;99.90
52867;DHT22;38739;53.324;6.862;2023-08-31T09:46:04;20.60;99.90
52867;DHT22;38739;53.324;6.862;2023-08-31T09:48:30;20.60;99.90
52867;DHT22;38739;53.324;6.862;2023-08-31T09:50:57;20.50;99.90
52867;DHT22;38739;53.324;6.862;2023-08-31T09:53:29;20.30;99.90
52867;DHT22;38739;53.324;6.862;2023-08-31T09:55:55;20.10;99.90
52867;DHT22;38739;53.324;6.862;2023-08-31T09:58:21;20.30;99.90
52867;DHT22;38739;53.324;6.862;2023-08-31T10:00:49;20.50;99.90
52867;DHT22;38739;53.324;6.862;2023-08-31T10:03:15;20.70;99.90
52867;DHT22;38739;53.324;6.862;2023-08-31T10:05:45;20.80;99.90
52867;DHT22;38739;53.324;6.862;2023-08-31T10:08:12;20.70;99.90
52867;DHT22;38739;53.324;6.862;2023-08-31T10:10:37;20.10;99.90
52867;DHT22;38739;53.324;6.862;2023-08-31T10:13:05;19.50;99.90
52867;DHT22;38739;53.324;6.862;2023-08-31T10:15:37;18.90;99.90
52867;DHT22;38739;53.324;6.862;2023-08-31T10:18:04;18.40;99.90
52867;DHT22;38739;53.324;6.862;2023-08-31T10:20:31;18.00;99.90
52867;DHT22;38739;53.324;6.862;2023-08-31T10:23:05;17.70;99.90
52867;DHT22;38739;53.324;6.862;2023-08-31T10:28:22;17.40;99.90
52867;DHT22;38739;53.324;6.862;2023-08-31T10:31:04;17.50;99.90
52867;DHT22;38739;53.324;6.862;2023-08-31T10:33:47;17.80;99.90
52867;DHT22;38739;53.324;6.862;2023-08-31T10:38:39;18.10;99.90
52867;DHT22;38739;53.324;6.862;2023-08-31T10:43:52;18.30;99.90
52867;DHT22;38739;53.324;6.862;2023-08-31T10:51:35;19.30;99.90
52867;DHT22;38739;53.324;6.862;2023-08-31T10:54:05;19.60;99.90
52867;DHT22;38739;53.324;6.862;2023-08-31T10:56:31;19.40;99.90
52867;DHT22;38739;53.324;6.862;2023-08-31T10:59:01;19.10;99.90
52867;DHT22;38739;53.324;6.862;2023-08-31T11:02:01;18.80;99.90
52867;DHT22;38739;53.324;6.862;2023-08-31T11:04:30;18.30;99.90
52867;DHT22;38739;53.324;6.862;2023-08-31T11:07:12;18.10;99.90
52867;DHT22;38739;53.324;6.862;2023-08-31T11:09:39;17.90;99.90
52867;DHT22;38739;53.324;6.862;2023-08-31T11:12:05;17.70;99.90
52867;DHT22;38739;53.324;6.862;2023-08-31T11:14:30;17.60;99.90
52867;DHT22;38739;53.324;6.862;2023-08-31T11:16:56;17.50;99.90
52867;DHT22;38739;53.324;6.862;2023-08-31T11:19:22;17.40;99.90
52867;DHT22;38739;53.324;6.862;2023-08-31T11:21:48;17.40;99.90
52867;DHT22;38739;53.324;6.862;2023-08-31T11:24:16;17.50;99.90
52867;DHT22;38739;53.324;6.862;2023-08-31T11:26:42;17.80;99.90
52867;DHT22;38739;53.324;6.862;2023-08-31T11:29:08;18.30;99.90
52867;DHT22;38739;53.324;6.862;2023-08-31T11:31:40;19.20;99.90
52867;DHT22;38739;53.324;6.862;2023-08-31T11:34:07;19.80;99.90
52867;DHT22;38739;53.324;6.862;2023-08-31T11:36:33;20.60;99.90
52867;DHT22;38739;53.324;6.862;2023-08-31T11:39:00;21.20;99.90
52867;DHT22;38739;53.324;6.862;2023-08-31T11:41:30;21.30;99.90
52867;DHT22;38739;53.324;6.862;2023-08-31T11:43:57;21.00;99.90
52867;DHT22;38739;53.324;6.862;2023-08-31T11:46:23;20.60;99.90
52867;DHT22;38739;53.324;6.862;2023-08-31T11:48:50;20.20;99.90
52867;DHT22;38739;53.324;6.862;2023-08-31T11:51:16;19.70;99.90
52867;DHT22;38739;53.324;6.862;2023-08-31T11:53:42;19.30;99.90
52867;DHT22;38739;53.324;6.862;2023-08-31T11:56:07;18.90;99.90
52867;DHT22;38739;53.324;6.862;2023-08-31T12:01:39;18.40;99.90
52867;DHT22;38739;53.324;6.862;2023-08-31T12:04:17;18.10;99.90
52867;DHT22;38739;53.324;6.862;2023-08-31T12:06:50;17.90;99.90
52867;DHT22;38739;53.324;6.862;2023-08-31T12:09:16;17.80;99.90
52867;DHT22;38739;53.324;6.862;2023-08-31T12:11:42;17.60;99.90
52867;DHT22;38739;53.324;6.862;2023-08-31T12:14:22;17.50;99.90
52867;DHT22;38739;53.324;6.862;2023-08-31T12:16:48;17.40;99.90
52867;DHT22;38739;53.324;6.862;2023-08-31T12:19:15;17.30;99.90
52867;DHT22;38739;53.324;6.862;2023-08-31T12:21:45;17.20;99.90
52867;DHT22;38739;53.324;6.862;2023-08-31T12:24:12;17.20;99.90
52867;DHT22;38739;53.324;6.862;2023-08-31T12:26:38;17.80;99.90
52867;DHT22;38739;53.324;6.862;2023-08-31T12:29:04;18.60;99.90
52867;DHT22;38739;53.324;6.862;2023-08-31T12:31:30;19.60;99.90
52867;DHT22;38739;53.324;6.862;2023-08-31T12:33:56;20.30;99.90
52867;DHT22;38739;53.324;6.862;2023-08-31T12:36:21;21.40;99.90
52867;DHT22;38739;53.324;6.862;2023-08-31T12:38:47;22.30;99.90
52867;DHT22;38739;53.324;6.862;2023-08-31T12:41:13;23.10;99.90
52867;DHT22;38739;53.324;6.862;2023-08-31T12:43:38;23.60;99.90
52867;DHT22;38739;53.324;6.862;2023-08-31T12:46:04;23.90;99.90
52867;DHT22;38739;53.324;6.862;2023-08-31T12:48:32;24.20;99.90
52867;DHT22;38739;53.324;6.862;2023-08-31T12:50:58;24.90;99.90
52867;DHT22;38739;53.324;6.862;2023-08-31T12:53:24;25.50;99.90
52867;DHT22;38739;53.324;6.862;2023-08-31T12:55:49;25.60;99.90
52867;DHT22;38739;53.324;6.862;2023-08-31T12:58:15;25.80;99.90
52867;DHT22;38739;53.324;6.862;2023-08-31T13:00:41;26.10;99.90
52867;DHT22;38739;53.324;6.862;2023-08-31T13:03:09;26.00;99.90
52867;DHT22;38739;53.324;6.862;2023-08-31T13:05:38;25.50;99.90
52867;DHT22;38739;53.324;6.862;2023-08-31T13:08:04;25.00;99.90
52867;DHT22;38739;53.324;6.862;2023-08-31T13:10:30;24.90;99.90
52867;DHT22;38739;53.324;6.862;2023-08-31T13:12:56;25.10;99.90
52867;DHT22;38739;53.324;6.862;2023-08-31T13:15:22;24.90;99.90
52867;DHT22;38739;53.324;6.862;2023-08-31T13:17:47;24.40;99.90
52867;DHT22;38739;53.324;6.862;2023-08-31T13:20:13;24.50;99.40
52867;DHT22;38739;53.324;6.862;2023-08-31T13:22:39;24.90;99.90
52867;DHT22;38739;53.324;6.862;2023-08-31T13:25:05;25.00;98.90
52867;DHT22;38739;53.324;6.862;2023-08-31T13:27:31;24.80;99.90
52867;DHT22;38739;53.324;6.862;2023-08-31T13:29:59;24.40;99.90
52867;DHT22;38739;53.324;6.862;2023-08-31T13:32:24;24.50;99.90
52867;DHT22;38739;53.324;6.862;2023-08-31T13:34:51;24.70;99.90
52867;DHT22;38739;53.324;6.862;2023-08-31T13:37:18;24.60;99.90
52867;DHT22;38739;53.324;6.862;2023-08-31T13:39:44;24.70;99.90
52867;DHT22;38739;53.324;6.862;2023-08-31T13:42:10;24.30;99.60
52867;DHT22;38739;53.324;6.862;2023-08-31T13:44:36;24.00;98.70
52867;DHT22;38739;53.324;6.862;2023-08-31T13:47:02;23.90;99.80
52867;DHT22;38739;53.324;6.862;2023-08-31T13:49:29;23.80;99.90
52867;DHT22;38739;53.324;6.862;2023-08-31T13:51:56;24.10;99.20
52867;DHT22;38739;53.324;6.862;2023-08-31T13:54:21;23.90;98.20
52867;DHT22;38739;53.324;6.862;2023-08-31T13:56:47;23.60;99.60
52867;DHT22;38739;53.324;6.862;2023-08-31T13:59:15;23.30;97.60
52867;DHT22;38739;53.324;6.862;2023-08-31T14:01:41;22.90;99.90
52867;DHT22;38739;53.324;6.862;2023-08-31T14:04:07;22.90;99.90
52867;DHT22;38739;53.324;6.862;2023-08-31T14:06:35;22.70;99.90
52867;DHT22;38739;53.324;6.862;2023-08-31T14:09:01;22.60;99.90
52867;DHT22;38739;53.324;6.862;2023-08-31T14:11:28;22.40;99.90
52867;DHT22;38739;53.324;6.862;2023-08-31T14:14:02;22.10;99.90
52867;DHT22;38739;53.324;6.862;2023-08-31T14:16:29;22.30;99.90
52867;DHT22;38739;53.324;6.862;2023-08-31T14:19:02;22.80;99.90
52867;DHT22;38739;53.324;6.862;2023-08-31T14:21:28;23.40;99.90
52867;DHT22;38739;53.324;6.862;2023-08-31T14:23:54;24.00;99.90
52867;DHT22;38739;53.324;6.862;2023-08-31T14:26:22;24.10;98.90
52867;DHT22;38739;53.324;6.862;2023-08-31T14:28:52;23.40;97.30
52867;DHT22;38739;53.324;6.862;2023-08-31T14:31:18;23.10;98.30
52867;DHT22;38739;53.324;6.862;2023-08-31T14:33:44;23.30;99.90
52867;DHT22;38739;53.324;6.862;2023-08-31T14:36:11;23.60;99.90
52867;DHT22;38739;53.324;6.862;2023-08-31T14:38:36;23.40;99.60
52867;DHT22;38739;53.324;6.862;2023-08-31T14:41:02;23.60;99.90
52867;DHT22;38739;53.324;6.862;2023-08-31T14:43:29;23.90;99.70
52867;DHT22;38739;53.324;6.862;2023-08-31T14:45:54;24.10;96.50
52867;DHT22;38739;53.324;6.862;2023-08-31T14:48:20;23.90;95.90
52867;DHT22;38739;53.324;6.862;2023-08-31T14:50:46;23.50;96.30
52867;DHT22;38739;53.324;6.862;2023-08-31T14:53:11;23.10;98.40
52867;DHT22;38739;53.324;6.862;2023-08-31T14:55:37;23.30;99.90
52867;DHT22;38739;53.324;6.862;2023-08-31T14:58:04;23.60;99.90
52867;DHT22;38739;53.324;6.862;2023-08-31T15:00:31;23.70;98.60
52867;DHT22;38739;53.324;6.862;2023-08-31T15:02:57;23.80;97.80
52867;DHT22;38739;53.324;6.862;2023-08-31T15:05:23;23.50;98.30
52867;DHT22;38739;53.324;6.862;2023-08-31T15:07:51;23.40;99.30
52867;DHT22;38739;53.324;6.862;2023-08-31T15:10:16;23.70;99.80
52867;DHT22;38739;53.324;6.862;2023-08-31T15:12:43;24.00;98.10
52867;DHT22;38739;53.324;6.862;2023-08-31T15:15:10;24.30;98.30
52867;DHT22;38739;53.324;6.862;2023-08-31T15:17:57;24.40;95.10
52867;DHT22;38739;53.324;6.862;2023-08-31T15:20:23;24.50;93.50
52867;DHT22;38739;53.324;6.862;2023-08-31T15:22:50;24.30;95.70
52867;DHT22;38739;53.324;6.862;2023-08-31T15:25:16;23.70;95.60
52867;DHT22;38739;53.324;6.862;2023-08-31T15:27:42;22.90;95.60
52867;DHT22;38739;53.324;6.862;2023-08-31T15:30:08;22.40;98.10
52867;DHT22;38739;53.324;6.862;2023-08-31T15:32:36;22.20;99.30
52867;DHT22;38739;53.324;6.862;2023-08-31T15:35:03;22.10;99.90
52867;DHT22;38739;53.324;6.862;2023-08-31T15:37:29;21.90;99.90
52867;DHT22;38739;53.324;6.862;2023-08-31T15:39:54;21.90;99.90
52867;DHT22;38739;53.324;6.862;2023-08-31T15:42:22;22.00;99.90
52867;DHT22;38739;53.324;6.862;2023-08-31T15:44:50;22.30;99.90
52867;DHT22;38739;53.324;6.862;2023-08-31T15:47:18;22.30;99.90